Time;durP1;ratioP1;P1;durP2;ratioP2;P2;SDS_P1;SDS_P2;PMS_P1;PMS_P2;Temp;Humidity;BMP_temperature;BMP_pressure;BME280_temperature;BME280_humidity;BME280_pressure;Samples;Min_cycle;Max_cycle;Signal;HPM_P1;HPM_P2
2023/11/25 00:02:16;;;;;;;6.03;5.57;;;4.90;38.30;;;;;;5013489;28;20548;-66
2023/11/25 00:04:42;;;;;;;5.70;5.40;;;5.20;37.40;;;;;;5013142;28;20412;-66
2023/11/25 00:07:07;;;;;;;6.80;6.30;;;5.20;35.70;;;;;;5013326;28;20177;-65
2023/11/25 00:09:33;;;;;;;5.87;5.47;;;5.10;36.50;;;;;;5013106;28;20189;-65
2023/11/25 00:11:58;;;;;;;6.30;6.00;;;5.20;37.60;;;;;;5013144;28;20236;-67
2023/11/25 00:14:24;;;;;;;6.20;5.80;;;5.20;37.10;;;;;;5012935;28;20181;-66
2023/11/25 00:16:50;;;;;;;6.10;5.80;;;5.30;37.40;;;;;;5013214;28;20181;-65
2023/11/25 00:19:17;;;;;;;5.93;5.63;;;5.50;35.70;;;;;;5013037;28;20268;-65
2023/11/25 00:21:42;;;;;;;5.73;5.33;;;5.40;35.60;;;;;;5012992;28;20775;-66
2023/11/25 00:24:08;;;;;;;6.33;5.90;;;5.60;34.50;;;;;;5012791;28;20425;-65
2023/11/25 00:26:34;;;;;;;6.63;5.93;;;5.50;33.70;;;;;;5012806;28;20177;-66
2023/11/25 00:28:59;;;;;;;6.20;5.80;;;5.50;33.30;;;;;;5012868;28;20264;-66
2023/11/25 00:31:25;;;;;;;6.40;6.00;;;5.40;34.10;;;;;;5012703;28;20921;-66
2023/11/25 00:33:51;;;;;;;6.97;6.50;;;5.50;34.20;;;;;;5012644;28;20181;-66
2023/11/25 00:36:16;;;;;;;5.53;5.23;;;5.50;33.00;;;;;;5012845;28;20181;-66
2023/11/25 00:38:42;;;;;;;6.50;5.87;;;5.70;32.30;;;;;;5012589;28;20559;-67
2023/11/25 00:41:08;;;;;;;6.70;6.10;;;5.90;32.10;;;;;;5012536;28;20464;-66
2023/11/25 00:43:34;;;;;;;7.03;6.40;;;6.00;30.30;;;;;;5012400;28;20765;-66
2023/11/25 00:45:59;;;;;;;6.50;5.93;;;6.00;30.90;;;;;;5012625;28;20180;-66
2023/11/25 00:48:25;;;;;;;7.20;6.60;;;6.00;30.20;;;;;;5012574;28;20178;-66
2023/11/25 00:50:51;;;;;;;6.13;5.73;;;6.10;29.50;;;;;;5012636;28;20189;-65
2023/11/25 00:53:17;;;;;;;7.03;6.43;;;5.90;30.90;;;;;;5012327;28;20921;-66
2023/11/25 00:55:43;;;;;;;6.53;6.13;;;6.00;30.60;;;;;;4996258;28;20185;-66
2023/11/25 00:58:10;;;;;;;6.77;6.10;;;5.90;29.90;;;;;;5013567;28;20416;-66
2023/11/25 01:00:36;;;;;;;6.20;5.87;;;5.90;31.00;;;;;;5012169;28;20208;-66
2023/11/25 01:03:01;;;;;;;6.67;6.27;;;5.90;30.10;;;;;;5012064;28;20417;-65
2023/11/25 01:05:27;;;;;;;6.07;5.77;;;6.00;29.40;;;;;;5012169;28;20180;-65
2023/11/25 01:07:52;;;;;;;6.37;5.93;;;6.20;28.60;;;;;;5012143;28;20178;-66
2023/11/25 01:10:18;;;;;;;6.90;6.27;;;6.20;27.90;;;;;;5012052;28;20634;-65
2023/11/25 01:12:44;;;;;;;6.43;5.97;;;6.20;27.40;;;;;;5012029;28;20185;-65
2023/11/25 01:15:12;;;;;;;6.20;5.90;;;6.10;26.90;;;;;;5011887;28;20181;-65
2023/11/25 01:17:38;;;;;;;6.13;5.93;;;6.10;26.50;;;;;;5012046;28;20200;-66
2023/11/25 01:20:05;;;;;;;6.63;6.33;;;5.90;27.90;;;;;;5011878;28;20456;-66
2023/11/25 01:22:31;;;;;;;6.30;6.10;;;5.90;27.30;;;;;;5011859;28;20482;-57
2023/11/25 01:24:56;;;;;;;6.23;5.80;;;5.90;27.40;;;;;;5011790;28;20412;-57
2023/11/25 01:27:23;;;;;;;7.20;6.47;;;6.00;26.70;;;;;;5011976;28;20177;-57
2023/11/25 01:29:50;;;;;;;6.77;6.47;;;6.10;26.40;;;;;;5011723;28;20184;-56
2023/11/25 01:32:15;;;;;;;6.20;5.80;;;5.90;27.30;;;;;;5011706;28;20474;-57
2023/11/25 01:34:41;;;;;;;6.13;5.80;;;5.80;27.30;;;;;;5011444;28;20518;-56
2023/11/25 01:37:07;;;;;;;6.30;6.00;;;6.00;26.90;;;;;;5011730;28;20256;-57
2023/11/25 01:39:34;;;;;;;6.27;5.77;;;6.00;26.90;;;;;;5011365;28;20819;-57
2023/11/25 01:42:00;;;;;;;6.50;6.10;;;6.10;26.40;;;;;;5011539;28;20629;-56
2023/11/25 01:44:25;;;;;;;6.70;6.10;;;6.10;26.20;;;;;;5011376;28;20415;-56
2023/11/25 01:46:52;;;;;;;6.40;6.00;;;6.10;26.90;;;;;;5011490;28;20408;-56
2023/11/25 01:49:22;;;;;;;6.30;5.90;;;5.90;27.50;;;;;;5011436;28;20235;-57
2023/11/25 01:51:50;;;;;;;6.40;6.10;;;5.80;27.60;;;;;;5011452;28;20432;-57
2023/11/25 01:54:17;;;;;;;6.50;6.10;;;5.80;28.50;;;;;;5011177;28;20420;-57
2023/11/25 01:56:56;;;;;;;6.80;6.40;;;5.90;27.50;;;;;;5011236;28;20411;-55
2023/11/25 01:59:24;;;;;;;6.00;5.80;;;6.00;26.30;;;;;;5011220;28;20470;-57
2023/11/25 02:01:50;;;;;;;6.80;6.30;;;5.90;26.70;;;;;;5010713;28;20483;-56
2023/11/25 02:04:15;;;;;;;6.20;5.90;;;5.80;27.30;;;;;;5010945;28;20412;-57
2023/11/25 02:06:41;;;;;;;7.20;6.83;;;5.90;26.70;;;;;;5012691;28;20407;-57
2023/11/25 02:09:07;;;;;;;7.03;6.53;;;6.00;26.80;;;;;;5011205;28;20173;-56
2023/11/25 02:11:53;;;;;;;8.30;6.83;;;6.00;27.40;;;;;;5011070;28;20173;-57
2023/11/25 02:14:19;;;;;;;7.47;6.97;;;6.10;26.60;;;;;;5011006;28;20184;-57
2023/11/25 02:16:45;;;;;;;6.90;6.60;;;6.20;26.10;;;;;;5011077;28;20416;-57
2023/11/25 02:19:12;;;;;;;6.83;6.53;;;6.30;25.20;;;;;;5010983;28;20227;-55
2023/11/25 02:21:41;;;;;;;6.67;6.17;;;6.30;25.80;;;;;;5011231;28;20191;-56
2023/11/25 02:24:08;;;;;;;6.40;6.10;;;6.20;25.60;;;;;;5010788;28;20475;-58
2023/11/25 02:26:34;;;;;;;6.47;6.07;;;6.10;25.60;;;;;;5010909;28;20411;-56
2023/11/25 02:29:00;;;;;;;6.47;6.10;;;6.00;25.90;;;;;;5011105;28;20416;-57
2023/11/25 02:31:25;;;;;;;6.80;6.40;;;5.90;25.40;;;;;;5010830;28;20427;-57
2023/11/25 02:33:51;;;;;;;6.27;5.97;;;5.90;25.80;;;;;;5010709;28;20844;-56
2023/11/25 02:36:17;;;;;;;6.70;6.40;;;5.90;25.80;;;;;;5010967;28;20185;-66
2023/11/25 02:38:42;;;;;;;6.70;6.20;;;5.90;26.10;;;;;;5010739;28;20224;-66
2023/11/25 02:41:10;;;;;;;6.00;5.70;;;5.90;25.90;;;;;;5010899;28;20208;-66
2023/11/25 02:43:35;;;;;;;8.67;6.33;;;5.80;26.80;;;;;;5010913;28;20626;-66
2023/11/25 02:46:03;;;;;;;6.40;6.00;;;5.70;26.70;;;;;;5010918;28;20416;-66
2023/11/25 02:48:29;;;;;;;6.77;6.37;;;5.80;26.10;;;;;;5010778;28;20646;-66
2023/11/25 02:50:55;;;;;;;6.77;6.30;;;5.50;27.10;;;;;;5010772;28;20432;-65
2023/11/25 02:53:21;;;;;;;7.27;6.70;;;5.60;27.80;;;;;;5010573;28;20427;-66
2023/11/25 02:55:47;;;;;;;7.57;6.50;;;5.70;26.60;;;;;;5010699;28;20276;-65
2023/11/25 02:58:12;;;;;;;6.90;6.20;;;5.80;25.60;;;;;;4994428;28;20215;-66
2023/11/25 03:00:43;;;;;;;7.13;6.60;;;5.80;25.80;;;;;;5010675;28;20611;-65
2023/11/25 03:03:13;;;;;;;7.27;6.67;;;5.70;26.20;;;;;;5010589;28;20458;-65
2023/11/25 03:05:45;;;;;;;7.43;6.90;;;5.50;27.20;;;;;;5010541;28;20412;-65
2023/11/25 03:08:12;;;;;;;6.57;6.27;;;5.40;27.30;;;;;;5010644;28;20515;-57
2023/11/25 03:10:41;;;;;;;7.70;7.00;;;5.60;26.80;;;;;;5010548;28;20435;-57
2023/11/25 03:13:10;;;;;;;7.13;6.20;;;5.70;26.10;;;;;;5010648;28;20416;-56
2023/11/25 03:15:37;;;;;;;7.30;6.70;;;5.50;27.20;;;;;;5014310;28;20522;-56
2023/11/25 03:18:05;;;;;;;7.40;6.90;;;5.50;26.80;;;;;;5014185;28;20432;-56
2023/11/25 03:20:32;;;;;;;7.80;7.20;;;5.40;27.00;;;;;;5014114;28;20460;-57
2023/11/25 03:22:58;;;;;;;7.50;6.53;;;5.20;27.80;;;;;;5013825;28;20443;-57
2023/11/25 03:25:25;;;;;;;7.03;6.53;;;5.30;27.60;;;;;;5013630;28;20905;-55
2023/11/25 03:27:51;;;;;;;7.10;6.60;;;5.50;27.00;;;;;;5013978;28;20178;-56
2023/11/25 03:30:17;;;;;;;7.93;7.20;;;5.70;26.80;;;;;;5013969;28;20415;-57
2023/11/25 03:32:43;;;;;;;7.23;6.57;;;5.90;26.20;;;;;;5013842;28;20455;-56
2023/11/25 03:35:10;;;;;;;7.10;6.70;;;5.90;25.70;;;;;;5013818;28;20177;-56
2023/11/25 03:37:36;;;;;;;7.53;6.90;;;5.90;25.50;;;;;;5013810;28;20412;-57
2023/11/25 03:40:04;;;;;;;6.87;6.57;;;5.80;25.50;;;;;;5013694;28;20468;-66
2023/11/25 03:42:30;;;;;;;6.87;6.47;;;5.80;25.60;;;;;;5013767;28;20543;-66
2023/11/25 03:44:55;;;;;;;6.70;6.30;;;5.90;24.90;;;;;;5013835;28;20423;-66
2023/11/25 03:47:21;;;;;;;7.27;6.73;;;5.90;24.60;;;;;;5014949;28;20177;-66
2023/11/25 03:49:46;;;;;;;7.43;6.93;;;6.00;25.00;;;;;;5014816;28;20665;-66
2023/11/25 03:52:12;;;;;;;7.77;7.30;;;5.90;25.10;;;;;;5013540;28;20619;-57
2023/11/25 03:54:38;;;;;;;7.80;7.20;;;5.90;25.00;;;;;;5013346;28;20182;-57
2023/11/25 03:57:04;;;;;;;7.70;7.20;;;5.60;26.10;;;;;;5013486;28;20275;-57
2023/11/25 03:59:30;;;;;;;7.57;7.17;;;5.50;26.10;;;;;;5013218;28;20428;-56
2023/11/25 04:01:55;;;;;;;7.80;7.27;;;5.50;26.10;;;;;;5013394;28;20412;-57
2023/11/25 04:04:21;;;;;;;6.60;6.30;;;5.70;25.30;;;;;;5013113;28;20185;-57
2023/11/25 04:06:49;;;;;;;7.50;6.80;;;5.90;24.90;;;;;;5013259;28;20535;-57
2023/11/25 04:09:15;;;;;;;8.30;7.00;;;6.00;25.10;;;;;;5014485;28;20585;-57
2023/11/25 04:11:42;;;;;;;7.00;6.50;;;6.10;24.00;;;;;;5013415;28;20418;-57
2023/11/25 04:14:08;;;;;;;7.13;6.70;;;6.00;25.10;;;;;;5013062;28;20189;-57
2023/11/25 04:16:34;;;;;;;7.37;6.77;;;5.90;24.80;;;;;;5013026;28;20417;-56
2023/11/25 04:19:00;;;;;;;7.10;6.70;;;5.60;26.30;;;;;;5013026;28;20448;-57
2023/11/25 04:21:26;;;;;;;7.20;6.57;;;5.80;25.30;;;;;;5012893;28;20205;-57
2023/11/25 04:23:55;;;;;;;6.53;6.13;;;5.80;25.50;;;;;;5012823;28;20511;-57
2023/11/25 04:26:24;;;;;;;6.43;6.13;;;5.70;25.90;;;;;;5012278;28;20428;-58
2023/11/25 04:28:51;;;;;;;7.47;6.93;;;5.90;25.00;;;;;;5012829;28;20842;-57
2023/11/25 04:31:16;;;;;;;6.93;6.50;;;6.20;24.00;;;;;;5012863;28;20487;-57
2023/11/25 04:33:42;;;;;;;7.63;7.00;;;6.20;24.10;;;;;;5012647;28;20420;-56
2023/11/25 04:36:09;;;;;;;6.83;6.20;;;6.20;24.80;;;;;;5012711;28;20185;-57
2023/11/25 04:38:35;;;;;;;6.50;6.10;;;6.40;24.30;;;;;;5012686;28;20645;-66
2023/11/25 04:41:01;;;;;;;6.50;6.17;;;6.60;23.30;;;;;;5012535;28;20562;-66
2023/11/25 04:43:26;;;;;;;7.10;6.60;;;6.70;23.50;;;;;;5012386;28;20503;-66
2023/11/25 04:45:52;;;;;;;6.27;5.97;;;6.80;23.50;;;;;;5012581;28;20524;-57
2023/11/25 04:48:19;;;;;;;7.23;6.70;;;6.90;22.80;;;;;;5012575;28;20192;-66
2023/11/25 04:50:46;;;;;;;6.83;6.33;;;6.90;22.00;;;;;;5012535;28;20181;-66
2023/11/25 04:53:12;;;;;;;6.87;6.47;;;7.00;21.70;;;;;;5012321;28;21260;-66
2023/11/25 04:55:38;;;;;;;6.43;6.13;;;7.00;21.40;;;;;;5012429;28;20490;-66
2023/11/25 04:58:03;;;;;;;5.60;5.40;;;7.10;21.20;;;;;;5012380;28;20913;-66
2023/11/25 05:00:29;;;;;;;6.40;6.00;;;7.00;21.10;;;;;;5013615;28;20214;-58
2023/11/25 05:02:55;;;;;;;6.60;6.10;;;6.80;21.30;;;;;;5012323;28;20688;-57
2023/11/25 05:05:23;;;;;;;5.73;5.53;;;6.60;21.80;;;;;;5012220;28;20539;-57
2023/11/25 05:07:48;;;;;;;6.03;5.63;;;6.50;22.30;;;;;;5012168;28;20440;-58
2023/11/25 05:10:15;;;;;;;6.50;6.10;;;6.60;21.80;;;;;;5012168;28;20451;-57
2023/11/25 05:12:44;;;;;;;6.93;6.40;;;6.70;21.90;;;;;;5012037;28;20638;-66
2023/11/25 05:15:11;;;;;;;6.10;5.80;;;6.70;22.10;;;;;;5011885;28;20432;-66
2023/11/25 05:17:37;;;;;;;7.17;6.63;;;6.50;21.70;;;;;;5011981;28;20479;-65
2023/11/25 05:20:04;;;;;;;7.07;6.47;;;6.70;21.80;;;;;;5011787;28;20980;-66
2023/11/25 05:22:30;;;;;;;7.43;6.90;;;6.70;21.10;;;;;;5012055;28;20442;-66
2023/11/25 05:24:56;;;;;;;7.70;6.60;;;6.50;22.10;;;;;;5011714;28;20925;-66
2023/11/25 05:27:22;;;;;;;7.07;6.57;;;6.20;22.80;;;;;;5011864;28;20213;-66
2023/11/25 05:29:49;;;;;;;6.30;6.00;;;6.30;22.80;;;;;;5011838;28;20653;-66
2023/11/25 05:32:15;;;;;;;5.97;5.67;;;6.50;21.80;;;;;;5011666;28;20814;-66
2023/11/25 05:34:40;;;;;;;7.47;6.43;;;6.60;21.80;;;;;;5011477;28;20421;-66
2023/11/25 05:37:08;;;;;;;6.97;6.37;;;6.50;21.90;;;;;;5010869;28;20219;-66
2023/11/25 05:39:35;;;;;;;6.70;6.20;;;6.50;21.70;;;;;;5011492;28;20184;-66
2023/11/25 05:42:02;;;;;;;6.20;5.87;;;6.50;21.20;;;;;;5011682;28;20424;-66
2023/11/25 05:44:29;;;;;;;6.10;5.70;;;6.50;21.30;;;;;;5011508;28;20424;-66
2023/11/25 05:46:56;;;;;;;6.07;5.60;;;6.50;21.50;;;;;;5011583;28;20455;-66
2023/11/25 05:49:22;;;;;;;6.73;6.27;;;6.30;22.30;;;;;;5011370;28;20499;-66
2023/11/25 05:51:50;;;;;;;6.60;6.20;;;6.40;22.00;;;;;;5011510;28;21056;-66
2023/11/25 05:54:16;;;;;;;6.90;6.43;;;6.50;21.70;;;;;;5011209;28;20416;-57
2023/11/25 05:56:42;;;;;;;6.60;6.03;;;6.60;21.80;;;;;;5011531;28;20432;-57
2023/11/25 05:59:08;;;;;;;6.83;6.20;;;6.60;21.80;;;;;;5011358;28;20459;-58
2023/11/25 06:01:36;;;;;;;5.67;5.27;;;6.60;21.80;;;;;;5011277;28;21130;-58
2023/11/25 06:04:02;;;;;;;6.80;6.33;;;6.70;21.80;;;;;;5011181;28;20408;-58
2023/11/25 06:06:27;;;;;;;6.63;6.23;;;6.30;22.10;;;;;;5011199;28;20877;-57
2023/11/25 06:08:53;;;;;;;6.57;6.00;;;6.10;23.10;;;;;;5011251;28;20182;-57
2023/11/25 06:11:28;;;;;;;7.20;6.63;;;6.00;23.20;;;;;;5011193;28;20181;-57
2023/11/25 06:13:56;;;;;;;6.90;6.50;;;5.80;23.70;;;;;;5011095;28;20180;-58
2023/11/25 06:16:22;;;;;;;7.33;6.73;;;5.40;24.70;;;;;;5011081;28;20746;-66
2023/11/25 06:18:48;;;;;;;8.93;6.80;;;5.40;24.90;;;;;;5011157;28;20418;-66
2023/11/25 06:21:14;;;;;;;6.60;6.30;;;5.20;25.00;;;;;;5010933;28;20468;-66
2023/11/25 06:23:40;;;;;;;6.57;6.27;;;5.10;25.20;;;;;;5010953;28;20547;-57
2023/11/25 06:26:10;;;;;;;7.20;6.80;;;5.30;25.70;;;;;;5011103;28;20936;-57
2023/11/25 06:28:48;;;;;;;7.03;6.63;;;5.40;24.70;;;;;;5010993;28;20181;-56
2023/11/25 06:31:15;;;;;;;6.63;6.13;;;5.00;25.70;;;;;;5011174;28;20811;-57
2023/11/25 06:33:42;;;;;;;7.60;7.10;;;5.10;26.50;;;;;;5010789;28;21074;-58
2023/11/25 06:36:08;;;;;;;7.40;6.80;;;5.00;26.30;;;;;;5014833;28;20950;-57
2023/11/25 06:38:34;;;;;;;7.40;7.00;;;4.90;26.10;;;;;;5010888;28;20471;-51
2023/11/25 06:41:03;;;;;;;7.30;6.80;;;4.80;27.00;;;;;;5010874;28;20508;-57
2023/11/25 06:43:29;;;;;;;7.20;6.80;;;4.80;26.80;;;;;;5010719;28;20672;-58
2023/11/25 06:45:55;;;;;;;6.83;6.43;;;4.70;27.30;;;;;;5011011;28;20461;-57
2023/11/25 06:48:24;;;;;;;7.53;7.03;;;4.70;27.60;;;;;;5011298;28;20512;-58
2023/11/25 06:50:53;;;;;;;6.63;6.33;;;4.70;28.00;;;;;;5014796;28;20497;-58
2023/11/25 06:53:19;;;;;;;6.83;6.53;;;5.00;27.90;;;;;;5014408;28;20562;-56
2023/11/25 06:55:45;;;;;;;7.20;6.70;;;4.90;27.80;;;;;;5014624;28;20916;-57
2023/11/25 06:58:14;;;;;;;6.50;6.10;;;4.90;28.20;;;;;;5014612;28;20514;-57
2023/11/25 07:00:43;;;;;;;6.90;6.27;;;4.90;27.50;;;;;;5014161;28;20197;-57
2023/11/25 07:03:09;;;;;;;7.50;7.10;;;4.80;28.20;;;;;;5014303;28;20463;-56
2023/11/25 07:05:35;;;;;;;7.07;6.57;;;4.80;28.70;;;;;;5014463;28;20455;-57
2023/11/25 07:08:02;;;;;;;7.90;7.30;;;4.80;28.70;;;;;;5014440;28;20174;-57
2023/11/25 07:10:34;;;;;;;7.53;7.13;;;4.70;28.60;;;;;;5014304;28;20771;-58
2023/11/25 07:13:00;;;;;;;7.60;7.20;;;4.70;28.60;;;;;;5014183;28;20416;-57
2023/11/25 07:15:26;;;;;;;8.47;7.90;;;4.60;29.20;;;;;;5014248;28;20571;-57
2023/11/25 07:17:51;;;;;;;7.47;6.97;;;4.70;29.10;;;;;;5014174;28;20955;-66
2023/11/25 07:20:18;;;;;;;7.30;6.73;;;4.70;28.70;;;;;;5014052;28;20205;-65
2023/11/25 07:22:44;;;;;;;7.37;6.90;;;4.70;28.60;;;;;;5014188;28;20169;-66
2023/11/25 07:25:14;;;;;;;7.97;7.50;;;4.70;28.60;;;;;;5015218;28;20408;-66
2023/11/25 07:27:44;;;;;;;7.67;7.17;;;4.70;28.60;;;;;;5013970;28;20426;-66
2023/11/25 07:30:11;;;;;;;6.97;6.57;;;4.90;28.80;;;;;;5013511;28;20412;-65
2023/11/25 07:32:37;;;;;;;7.13;6.83;;;5.00;28.30;;;;;;5010589;28;20440;-65
2023/11/25 07:35:07;;;;;;;8.17;7.40;;;4.80;28.70;;;;;;5030131;28;20414;-66
2023/11/25 07:37:38;;;;;;;7.43;6.93;;;4.70;28.60;;;;;;5011198;28;20452;-65
2023/11/25 07:40:09;;;;;;;8.07;7.57;;;4.60;29.10;;;;;;5030197;28;21034;-52
2023/11/25 07:42:37;;;;;;;7.07;6.73;;;4.60;28.60;;;;;;5030567;28;20417;-53
2023/11/25 07:45:06;;;;;;;7.60;6.90;;;4.60;28.80;;;;;;5013637;28;20452;-55
2023/11/25 07:47:32;;;;;;;7.23;6.60;;;4.80;28.70;;;;;;5030042;28;20413;-50
2023/11/25 07:49:58;;;;;;;6.90;6.37;;;4.90;28.30;;;;;;5030112;28;20420;-50
2023/11/25 07:52:24;;;;;;;7.53;7.10;;;5.00;28.30;;;;;;5030202;28;20571;-55
2023/11/25 07:54:49;;;;;;;7.60;7.00;;;5.20;27.70;;;;;;5013266;28;20665;-65
2023/11/25 07:57:15;;;;;;;7.03;6.43;;;5.20;26.60;;;;;;5029948;28;20181;-64
2023/11/25 07:59:41;;;;;;;7.17;6.50;;;5.40;27.40;;;;;;5028733;28;20177;-64
2023/11/25 08:02:06;;;;;;;7.07;6.63;;;5.40;27.00;;;;;;5029756;28;20177;-63
2023/11/25 08:04:32;;;;;;;6.50;5.90;;;5.40;26.00;;;;;;5029909;28;20669;-63
2023/11/25 08:06:57;;;;;;;7.13;6.73;;;5.50;26.30;;;;;;5030054;28;20185;-52
2023/11/25 08:09:23;;;;;;;7.50;6.90;;;5.50;26.10;;;;;;5029843;28;20176;-63
2023/11/25 08:11:49;;;;;;;6.87;6.47;;;5.40;26.10;;;;;;5030207;28;20181;-55
2023/11/25 08:14:15;;;;;;;6.93;6.37;;;5.50;26.10;;;;;;5029891;28;20182;-53
2023/11/25 08:16:40;;;;;;;6.93;6.53;;;5.80;25.80;;;;;;5029965;28;20502;-52
2023/11/25 08:19:07;;;;;;;8.60;7.93;;;5.90;25.00;;;;;;5029741;28;20646;-54
2023/11/25 08:21:32;;;;;;;7.20;6.60;;;5.90;25.30;;;;;;5029385;28;20292;-56
2023/11/25 08:23:58;;;;;;;7.33;6.90;;;5.60;25.40;;;;;;5029622;28;20982;-55
2023/11/25 08:26:28;;;;;;;7.20;6.60;;;5.60;26.20;;;;;;5029550;28;20181;-56
2023/11/25 08:28:54;;;;;;;7.50;7.00;;;5.50;26.10;;;;;;5029540;28;20180;-57
2023/11/25 08:31:21;;;;;;;8.57;7.90;;;5.30;26.20;;;;;;5012567;28;20421;-56
2023/11/25 08:33:47;;;;;;;7.70;7.10;;;5.30;26.70;;;;;;5029153;28;20421;-55
2023/11/25 08:36:14;;;;;;;6.60;6.20;;;5.30;26.60;;;;;;5029261;28;20416;-56
2023/11/25 08:38:40;;;;;;;7.10;6.70;;;5.30;26.60;;;;;;5029227;28;20469;-56
2023/11/25 08:41:07;;;;;;;7.73;7.20;;;5.40;26.20;;;;;;5012581;28;20456;-55
2023/11/25 08:43:45;;;;;;;7.63;7.03;;;5.20;26.90;;;;;;5028893;28;20763;-55
2023/11/25 08:46:11;;;;;;;8.07;7.47;;;5.30;26.70;;;;;;5029089;28;20924;-56
2023/11/25 08:48:37;;;;;;;7.20;6.50;;;5.40;26.70;;;;;;5028904;28;20420;-56
2023/11/25 08:51:10;;;;;;;7.90;7.30;;;5.70;26.00;;;;;;5029003;28;20424;-54
2023/11/25 08:53:38;;;;;;;8.37;7.87;;;5.70;25.70;;;;;;5028823;28;20691;-55
2023/11/25 08:56:06;;;;;;;7.77;7.27;;;5.60;26.30;;;;;;5012412;28;20420;-52
2023/11/25 08:58:32;;;;;;;7.30;6.90;;;5.50;27.10;;;;;;5028653;28;20924;-51
2023/11/25 09:00:58;;;;;;;8.90;8.10;;;5.60;27.20;;;;;;5028739;28;20463;-56
2023/11/25 09:03:23;;;;;;;7.73;7.03;;;5.80;26.70;;;;;;5027050;28;20443;-55
2023/11/25 09:05:49;;;;;;;7.47;6.97;;;5.80;26.60;;;;;;5010654;28;20588;-55
2023/11/25 09:08:16;;;;;;;8.53;6.77;;;6.00;26.30;;;;;;5011005;28;20185;-53
2023/11/25 09:10:42;;;;;;;7.30;6.80;;;6.10;26.40;;;;;;5012561;28;20504;-55
2023/11/25 09:13:08;;;;;;;9.10;7.90;;;6.00;26.40;;;;;;5010767;28;20428;-53
2023/11/25 09:15:34;;;;;;;7.70;7.10;;;6.20;26.00;;;;;;5012141;28;20494;-56
2023/11/25 09:18:01;;;;;;;8.10;7.37;;;6.20;25.60;;;;;;5027646;28;20232;-57
2023/11/25 09:20:26;;;;;;;7.33;6.83;;;6.30;25.90;;;;;;5027480;28;20467;-54
2023/11/25 09:22:52;;;;;;;8.87;8.17;;;6.20;26.50;;;;;;5027648;28;20429;-54
2023/11/25 09:25:18;;;;;;;8.47;7.30;;;6.30;26.20;;;;;;5011546;28;20439;-55
2023/11/25 09:27:44;;;;;;;9.10;8.40;;;6.40;25.80;;;;;;5027465;28;20193;-52
2023/11/25 09:30:11;;;;;;;7.70;7.10;;;6.40;25.80;;;;;;5027236;28;20192;-64
2023/11/25 09:32:41;;;;;;;8.30;7.57;;;6.50;25.40;;;;;;5027386;28;20448;-64
2023/11/25 09:35:09;;;;;;;11.70;10.80;;;6.20;26.00;;;;;;5027399;28;20431;-64
2023/11/25 09:37:35;;;;;;;9.37;8.47;;;6.10;27.10;;;;;;5009920;28;20428;-63
2023/11/25 09:40:04;;;;;;;8.97;8.20;;;5.90;27.00;;;;;;5025979;28;20824;-63
2023/11/25 09:42:31;;;;;;;8.97;8.20;;;5.80;27.70;;;;;;5026192;28;20264;-55
2023/11/25 09:45:01;;;;;;;9.77;8.17;;;5.50;28.50;;;;;;5026266;28;20425;-55
2023/11/25 09:47:27;;;;;;;9.07;8.07;;;5.50;28.30;;;;;;5025956;28;20431;-55
2023/11/25 09:49:53;;;;;;;13.70;8.90;;;5.50;28.60;;;;;;5026226;28;20421;-56
2023/11/25 09:52:20;;;;;;;15.90;11.47;;;5.50;28.50;;;;;;5027191;28;20630;-55
2023/11/25 09:54:46;;;;;;;9.53;8.53;;;5.50;29.10;;;;;;5012661;28;20426;-53
2023/11/25 09:57:17;;;;;;;10.10;8.97;;;5.50;28.40;;;;;;5027991;28;20478;-55
2023/11/25 09:59:43;;;;;;;10.47;8.60;;;5.70;27.70;;;;;;5027867;28;20430;-65
2023/11/25 10:02:09;;;;;;;10.20;9.13;;;5.70;27.70;;;;;;5027809;28;20416;-64
2023/11/25 10:04:38;;;;;;;12.03;8.90;;;5.90;27.40;;;;;;5026647;28;20920;-64
2023/11/25 10:07:06;;;;;;;9.00;8.20;;;5.90;27.60;;;;;;5012167;28;20266;-65
2023/11/25 10:09:39;;;;;;;8.93;7.93;;;5.90;27.20;;;;;;5021083;28;20459;-64
2023/11/25 10:12:13;;;;;;;9.40;8.60;;;5.80;27.10;;;;;;5010815;28;20436;-65
2023/11/25 10:14:43;;;;;;;9.40;8.53;;;6.00;27.20;;;;;;5007032;28;20420;-65
2023/11/25 10:17:26;;;;;;;10.30;9.20;;;6.10;26.60;;;;;;5011880;28;20451;-64
2023/11/25 10:20:22;;;;;;;8.87;8.00;;;6.10;26.90;;;;;;5010600;28;20467;-64
2023/11/25 10:22:49;;;;;;;10.27;8.80;;;6.10;26.50;;;;;;5007941;28;20776;-64
2023/11/25 10:25:19;;;;;;;9.70;7.93;;;6.40;26.20;;;;;;5002265;28;20649;-64
2023/11/25 10:27:45;;;;;;;9.13;8.30;;;6.60;25.00;;;;;;5027031;28;20412;-64
2023/11/25 10:30:14;;;;;;;9.27;8.23;;;6.50;25.20;;;;;;5018159;28;20820;-63
2023/11/25 10:32:41;;;;;;;13.00;8.37;;;6.60;24.00;;;;;;5026886;28;20940;-64
2023/11/25 10:35:10;;;;;;;9.13;8.33;;;6.50;24.30;;;;;;5026120;28;20435;-64
2023/11/25 10:37:40;;;;;;;9.50;8.57;;;6.50;24.60;;;;;;5006103;28;21160;-59
2023/11/25 10:40:09;;;;;;;7.83;7.33;;;6.50;24.70;;;;;;5004170;28;21039;-61
2023/11/25 10:42:36;;;;;;;11.87;8.60;;;6.30;26.80;;;;;;5005291;28;20503;-62
2023/11/25 10:45:04;;;;;;;9.33;7.27;;;6.40;26.50;;;;;;5019216;28;20417;-61
2023/11/25 10:47:33;;;;;;;11.97;7.47;;;6.70;24.80;;;;;;5007199;28;20459;-62
2023/11/25 10:50:03;;;;;;;8.47;7.57;;;6.60;24.40;;;;;;5027454;28;20421;-65
2023/11/25 10:52:35;;;;;;;7.90;7.20;;;6.60;25.40;;;;;;5027034;28;20745;-65
2023/11/25 10:55:02;;;;;;;8.30;7.47;;;6.90;24.70;;;;;;5008192;28;20446;-65
2023/11/25 10:57:30;;;;;;;8.27;7.50;;;7.00;23.90;;;;;;5010231;28;20424;-66
2023/11/25 10:59:57;;;;;;;7.40;6.70;;;7.00;23.50;;;;;;5010171;28;20506;-56
2023/11/25 11:02:59;;;;;;;13.17;7.77;;;7.00;23.60;;;;;;5010484;28;20943;-58
2023/11/25 11:05:29;;;;;;;9.07;7.70;;;6.80;23.40;;;;;;5012284;28;20411;-55
2023/11/25 11:08:01;;;;;;;11.07;8.13;;;6.60;23.10;;;;;;5010836;28;20409;-55
2023/11/25 11:10:38;;;;;;;12.10;7.90;;;6.60;22.90;;;;;;5009893;28;20432;-55
2023/11/25 11:13:08;;;;;;;9.53;8.00;;;6.80;23.20;;;;;;5011624;28;20418;-56
2023/11/25 11:15:37;;;;;;;10.80;7.70;;;6.50;23.40;;;;;;5010765;28;20780;-56
2023/11/25 11:18:22;;;;;;;7.87;7.23;;;6.40;23.40;;;;;;5010586;28;20424;-57
2023/11/25 11:20:51;;;;;;;9.07;8.57;;;6.50;24.10;;;;;;5010575;28;20467;-56
2023/11/25 11:23:19;;;;;;;8.87;8.07;;;6.60;23.60;;;;;;5010312;28;20420;-55
2023/11/25 11:26:02;;;;;;;9.67;8.60;;;6.60;24.00;;;;;;5010513;28;20432;-55
2023/11/25 11:28:39;;;;;;;9.87;8.60;;;6.60;24.40;;;;;;5010535;28;20416;-58
2023/11/25 11:31:33;;;;;;;9.03;8.17;;;6.60;24.60;;;;;;5011918;28;20818;-57
2023/11/25 11:33:59;;;;;;;9.10;8.30;;;6.60;25.30;;;;;;5009981;28;20428;-57
2023/11/25 11:36:31;;;;;;;11.33;7.80;;;6.80;24.90;;;;;;5011988;28;20474;-58
2023/11/25 11:38:57;;;;;;;8.67;7.90;;;6.70;24.70;;;;;;5011301;28;20812;-59
2023/11/25 11:41:24;;;;;;;8.60;7.90;;;6.60;24.80;;;;;;5013555;28;20459;-57
2023/11/25 11:44:07;;;;;;;8.07;7.47;;;6.50;24.80;;;;;;5013553;28;20646;-58
2023/11/25 11:46:38;;;;;;;7.43;6.93;;;6.50;25.00;;;;;;5013684;28;20638;-58
2023/11/25 11:49:07;;;;;;;8.17;7.53;;;6.50;25.00;;;;;;5013682;28;20408;-57
2023/11/25 11:51:33;;;;;;;8.03;7.40;;;6.60;25.60;;;;;;5013476;28;20424;-57
2023/11/25 11:54:20;;;;;;;9.07;7.90;;;6.60;26.30;;;;;;5013327;28;20459;-58
2023/11/25 11:57:15;;;;;;;7.33;6.80;;;6.60;27.60;;;;;;5013526;28;20472;-58
2023/11/25 12:00:13;;;;;;;7.87;7.33;;;6.70;27.60;;;;;;5013455;28;20444;-57
2023/11/25 12:02:42;;;;;;;7.97;7.47;;;6.80;27.10;;;;;;5013345;28;20417;-58
2023/11/25 12:05:14;;;;;;;8.23;7.57;;;6.60;29.00;;;;;;5013225;28;20813;-57
2023/11/25 12:07:39;;;;;;;7.83;7.10;;;6.20;31.20;;;;;;5013430;28;20416;-58
2023/11/25 12:10:06;;;;;;;8.60;7.90;;;5.90;33.50;;;;;;5013226;28;20507;-57
2023/11/25 12:12:38;;;;;;;8.43;7.67;;;5.70;34.00;;;;;;5013164;28;20239;-57
2023/11/25 12:15:06;;;;;;;9.83;7.83;;;5.70;33.80;;;;;;5013090;28;20414;-56
2023/11/25 12:17:32;;;;;;;8.40;7.80;;;5.50;34.40;;;;;;5012971;28;20424;-56
2023/11/25 12:19:57;;;;;;;8.00;7.27;;;5.40;35.40;;;;;;5012981;28;20555;-56
2023/11/25 12:22:23;;;;;;;8.03;7.63;;;5.60;35.40;;;;;;5013119;28;20496;-56
2023/11/25 12:24:49;;;;;;;7.97;7.43;;;5.60;35.30;;;;;;5014035;28;20165;-57
2023/11/25 12:27:17;;;;;;;8.13;7.67;;;5.50;35.20;;;;;;5012920;28;20499;-57
2023/11/25 12:29:43;;;;;;;7.83;7.23;;;5.40;35.30;;;;;;5012847;28;20177;-56
2023/11/25 12:32:08;;;;;;;7.30;6.70;;;5.50;35.30;;;;;;5012825;28;20446;-56
2023/11/25 12:34:34;;;;;;;6.97;6.60;;;5.30;35.20;;;;;;5012572;28;20180;-58
2023/11/25 12:37:00;;;;;;;7.70;7.30;;;5.50;35.10;;;;;;5012672;28;20702;-55
2023/11/25 12:39:26;;;;;;;8.23;7.57;;;5.40;35.60;;;;;;5012460;28;20177;-57
2023/11/25 12:41:53;;;;;;;7.40;7.00;;;5.40;35.40;;;;;;5012521;28;20459;-56
2023/11/25 12:44:19;;;;;;;7.10;6.60;;;5.50;36.00;;;;;;5012585;28;20404;-57
2023/11/25 12:47:00;;;;;;;8.47;7.97;;;5.60;34.90;;;;;;5012136;28;20783;-56
2023/11/25 12:49:26;;;;;;;8.63;8.03;;;5.60;35.70;;;;;;5009291;28;20779;-55
2023/11/25 12:51:52;;;;;;;8.63;8.13;;;5.50;35.40;;;;;;5011082;28;20432;-57
2023/11/25 12:54:19;;;;;;;7.97;7.57;;;5.50;35.50;;;;;;5010579;28;20596;-58
2023/11/25 12:56:51;;;;;;;8.13;7.63;;;5.50;36.30;;;;;;5011045;28;20789;-56
2023/11/25 12:59:30;;;;;;;8.30;7.80;;;5.40;35.80;;;;;;5010169;28;20428;-57